Samantha, Alabama
Current Conditions -  °F | °C
As of 8:53 AM on Friday 19 Dec 2014 (Local Time) from KTCL Reporting Station
Broken Clouds Broken Clouds  
Wind Chill: 38°   Ceiling: 3400
Heat Index: 42°   Visibility: 7mi
Dew Point: 37°   Wind: 7mph
Humidity: 82%   Direction: 30°NNE
Pressure: 30.23"   Gusts: NA
Location:  33.42°N, 87.61°W
Report Text: KTCL 191453Z 03006KT 7SM BKN034 06/03 A3023 RMK AO2 SLP236 T00560028 50011
Loading
Personal Weather Stations






























Interactive Weather Map New forecast layout! Learn more

10-Day Weather Forecast

Advertisements
Track Severe Weather on mobile